Terminal Aerodrome Forecast
Issued by NWS

Home | Current Version | Previous Version | Text Only | Print | Product List | Glossary On
Versions: 1 2 3 4 5 6 7 8 9 10 11 12 13 14 15 16 17 18 19 20 21 22 23 24
000
FTUS45 KLKN 191736
TAFTPH
TAF
KTPH 191736Z 1918/2018 33006KT P6SM SCT070 BKN100
     FM192100 23012G22KT P6SM -SHSN BKN040 OVC070
     FM192300 28016G26KT 6SM -SHSN OVC030
     FM200200 33020G30KT 5SM -SHSN BLSN OVC025
     FM200700 35017G27KT 6SM -SN BLSN OVC035=

USA.gov is the U.S. government's official web portal to all federal, state and local government web resources and services.